createdAt,value
2018-05-31T00:02:06.983Z,97.40
2018-05-31T00:04:35.912Z,97.80
2018-05-31T00:07:04.789Z,97.90
2018-05-31T00:09:33.660Z,98.20
2018-05-31T00:12:03.457Z,98.50
2018-05-31T00:14:32.373Z,98.40
2018-05-31T00:17:01.280Z,98.90
2018-05-31T00:19:30.147Z,98.80
2018-05-31T00:21:59.801Z,98.90
2018-05-31T00:24:28.696Z,98.90
2018-05-31T00:26:57.881Z,98.70
2018-05-31T00:29:26.804Z,98.70
2018-05-31T00:31:55.729Z,98.80
2018-05-31T00:34:28.067Z,98.90
2018-05-31T00:36:56.969Z,99.30
2018-05-31T00:39:26.601Z,99.10
2018-05-31T00:41:55.863Z,99.10
2018-05-31T00:44:24.756Z,98.90
2018-05-31T00:46:53.672Z,98.90
2018-05-31T00:49:23.356Z,98.90
2018-05-31T00:51:52.332Z,98.90
2018-05-31T00:54:21.240Z,99.00
2018-05-31T00:56:50.304Z,98.90
2018-05-31T00:59:19.196Z,99.40
2018-05-31T01:01:48.146Z,99.00
2018-05-31T01:04:17.169Z,99.40
2018-05-31T01:06:46.307Z,99.60
2018-05-31T01:09:15.367Z,99.60
2018-05-31T01:11:44.320Z,99.40
2018-05-31T01:14:13.975Z,99.30
2018-05-31T01:16:42.854Z,99.30
2018-05-31T01:19:11.837Z,99.20
2018-05-31T01:21:40.735Z,99.30
2018-05-31T01:24:09.603Z,99.40
2018-05-31T01:26:38.624Z,99.10
2018-05-31T01:29:07.518Z,99.20
2018-05-31T01:31:36.445Z,99.10
2018-05-31T01:34:05.368Z,99.30
2018-05-31T01:36:34.250Z,99.10
2018-05-31T01:39:04.035Z,98.90
2018-05-31T01:41:33.140Z,98.90
2018-05-31T01:44:02.818Z,99.00
2018-05-31T01:46:32.356Z,99.00
2018-05-31T01:49:01.394Z,99.10
2018-05-31T01:51:30.343Z,99.50
2018-05-31T01:53:59.988Z,99.60
2018-05-31T01:56:28.892Z,99.60
2018-05-31T01:58:57.853Z,99.50
2018-05-31T02:01:26.844Z,99.50
2018-05-31T02:03:55.755Z,99.50
2018-05-31T02:06:24.850Z,99.70
2018-05-31T02:08:53.735Z,99.60
2018-05-31T02:11:22.670Z,99.50
2018-05-31T02:13:51.567Z,99.70
2018-05-31T02:16:20.606Z,99.50
2018-05-31T02:18:49.504Z,99.40
2018-05-31T02:21:18.408Z,99.50
2018-05-31T02:23:47.303Z,99.50
2018-05-31T02:26:16.483Z,99.50
2018-05-31T02:28:45.643Z,99.30
2018-05-31T02:31:14.619Z,99.50
2018-05-31T02:33:44.481Z,99.60
2018-05-31T02:36:13.456Z,99.40
2018-05-31T02:38:42.761Z,99.30
2018-05-31T02:41:11.640Z,99.00
2018-05-31T02:43:40.530Z,99.10
2018-05-31T02:46:10.204Z,99.50
2018-05-31T02:48:39.116Z,99.50
2018-05-31T02:51:08.345Z,99.50
2018-05-31T02:53:37.342Z,99.70
2018-05-31T02:56:06.407Z,99.80
2018-05-31T02:58:36.075Z,99.90
2018-05-31T03:01:05.272Z,99.90
2018-05-31T03:03:34.225Z,99.90
2018-05-31T03:06:03.171Z,99.70
2018-05-31T03:08:32.059Z,99.80
2018-05-31T03:11:00.975Z,99.80
2018-05-31T03:13:29.868Z,99.70
2018-05-31T03:15:59.521Z,99.50
2018-05-31T03:18:28.434Z,99.50
2018-05-31T03:20:57.291Z,99.50
2018-05-31T03:23:26.331Z,99.40
2018-05-31T03:25:55.296Z,99.10
2018-05-31T03:28:24.277Z,99.20
2018-05-31T03:30:53.166Z,99.30
2018-05-31T03:33:22.291Z,99.00
2018-05-31T03:35:51.157Z,99.30
2018-05-31T03:38:20.057Z,99.40
2018-05-31T03:40:48.931Z,99.00
2018-05-31T03:43:17.871Z,99.50
2018-05-31T03:45:46.823Z,99.20
2018-05-31T03:48:15.749Z,99.00
2018-05-31T03:50:44.732Z,98.50
2018-05-31T03:53:13.812Z,98.10
2018-05-31T03:55:42.753Z,98.10
2018-05-31T03:58:12.577Z,98.00
2018-05-31T04:00:42.284Z,97.70
2018-05-31T04:03:11.407Z,97.70
2018-05-31T04:05:40.276Z,98.10
2018-05-31T04:08:10.000Z,98.00
2018-05-31T04:10:39.107Z,98.00
2018-05-31T04:13:07.975Z,97.70
2018-05-31T04:15:37.907Z,97.20
2018-05-31T04:18:06.809Z,96.60
2018-05-31T04:20:35.982Z,96.60
2018-05-31T04:23:04.897Z,96.20
2018-05-31T04:25:33.876Z,95.80
2018-05-31T04:28:02.855Z,95.10
2018-05-31T04:30:31.769Z,94.60
2018-05-31T04:33:00.637Z,94.10
2018-05-31T04:35:29.757Z,93.90
2018-05-31T04:37:58.653Z,93.80
2018-05-31T04:40:27.568Z,93.90
2018-05-31T04:42:56.556Z,93.90
2018-05-31T04:45:25.483Z,94.20
2018-05-31T04:47:54.540Z,94.20
2018-05-31T04:50:23.412Z,94.20
2018-05-31T04:52:52.696Z,93.80
2018-05-31T04:55:21.752Z,93.80
2018-05-31T04:57:51.420Z,93.40
2018-05-31T05:00:20.773Z,93.40
2018-05-31T05:02:49.724Z,93.50
2018-05-31T05:05:18.635Z,92.70
2018-05-31T05:07:47.660Z,92.40
2018-05-31T05:10:16.917Z,92.40
2018-05-31T05:12:45.806Z,92.10
2018-05-31T05:15:14.820Z,92.30
2018-05-31T05:17:44.476Z,92.20
2018-05-31T05:20:14.261Z,92.10
2018-05-31T05:22:43.327Z,92.20
2018-05-31T05:25:12.219Z,91.90
2018-05-31T05:27:41.113Z,91.90
2018-05-31T05:30:10.866Z,92.20
2018-05-31T05:32:39.966Z,92.20
2018-05-31T05:35:09.257Z,92.30
2018-05-31T05:37:38.146Z,92.20
2018-05-31T05:40:07.073Z,92.00
2018-05-31T05:42:36.871Z,92.30
2018-05-31T05:45:05.831Z,91.50
2018-05-31T05:47:34.712Z,91.20
2018-05-31T05:50:03.969Z,90.70
2018-05-31T05:52:32.932Z,90.80
2018-05-31T05:55:01.982Z,91.00
2018-05-31T05:57:31.073Z,90.70
2018-05-31T06:00:00.736Z,90.60
2018-05-31T06:02:29.595Z,90.30
2018-05-31T06:04:58.500Z,90.00
2018-05-31T06:07:27.367Z,90.30
2018-05-31T06:09:57.037Z,88.40
2018-05-31T06:12:26.101Z,88.30
2018-05-31T06:14:55.004Z,88.70
2018-05-31T06:17:23.891Z,89.10
2018-05-31T06:19:52.814Z,89.00
2018-05-31T06:22:21.800Z,89.60
2018-05-31T06:24:50.704Z,87.40
2018-05-31T06:27:20.050Z,87.10
2018-05-31T06:29:49.092Z,86.60
2018-05-31T06:32:18.054Z,87.20
2018-05-31T06:34:47.084Z,87.00
2018-05-31T06:37:16.025Z,86.00
2018-05-31T06:39:45.667Z,85.20
2018-05-31T06:42:14.681Z,85.20
2018-05-31T06:44:44.345Z,84.90
2018-05-31T06:47:13.269Z,85.10
2018-05-31T06:49:42.396Z,84.50
2018-05-31T06:52:12.062Z,83.80
2018-05-31T06:54:40.953Z,83.70
2018-05-31T06:57:10.116Z,82.90
2018-05-31T06:59:39.032Z,82.30
2018-05-31T07:02:07.932Z,80.90
2018-05-31T07:04:36.805Z,81.60
2018-05-31T07:07:05.691Z,83.00
2018-05-31T07:09:34.571Z,82.20
2018-05-31T07:12:03.656Z,80.50
2018-05-31T07:14:32.551Z,80.30
2018-05-31T07:17:01.509Z,80.20
2018-05-31T07:19:31.169Z,81.30
2018-05-31T07:22:00.216Z,81.30
2018-05-31T07:24:29.115Z,81.70
2018-05-31T07:26:58.944Z,79.10
2018-05-31T07:29:28.664Z,79.80
2018-05-31T07:31:57.697Z,79.80
2018-05-31T07:34:26.789Z,79.00
2018-05-31T07:36:55.855Z,78.20
2018-05-31T07:39:24.723Z,77.10
2018-05-31T07:41:53.621Z,75.80
2018-05-31T07:44:22.631Z,74.30
2018-05-31T07:46:51.552Z,73.10
2018-05-31T07:49:20.436Z,73.50
2018-05-31T07:51:49.509Z,74.00
2018-05-31T07:54:18.540Z,72.90
2018-05-31T07:56:47.553Z,74.20
2018-05-31T07:59:16.653Z,73.80
2018-05-31T08:01:46.340Z,74.10
2018-05-31T08:04:15.247Z,74.10
2018-05-31T08:06:44.949Z,74.80
2018-05-31T08:09:13.848Z,74.80
2018-05-31T08:11:43.504Z,74.50
2018-05-31T08:14:12.412Z,74.30
2018-05-31T08:16:41.308Z,74.10
2018-05-31T08:19:10.217Z,74.10
2018-05-31T08:21:39.101Z,72.40
2018-05-31T08:24:09.572Z,72.60
2018-05-31T08:26:38.436Z,72.60
2018-05-31T08:29:08.312Z,73.30
2018-05-31T08:31:37.300Z,73.20
2018-05-31T08:34:06.927Z,73.60
2018-05-31T08:36:35.984Z,73.60
2018-05-31T08:39:05.764Z,73.20
2018-05-31T08:41:37.220Z,73.40
2018-05-31T08:44:07.761Z,73.30
2018-05-31T08:46:37.077Z,72.80
2018-05-31T08:49:06.817Z,73.20
2018-05-31T08:51:36.225Z,72.00
2018-05-31T08:54:05.244Z,73.40
2018-05-31T08:56:34.892Z,71.70
2018-05-31T08:59:03.776Z,71.70
2018-05-31T09:01:32.833Z,71.50
2018-05-31T09:04:02.744Z,73.00
2018-05-31T09:06:32.403Z,73.10
2018-05-31T09:09:01.294Z,73.10
2018-05-31T09:11:30.167Z,70.20
2018-05-31T09:13:59.085Z,68.10
2018-05-31T09:16:27.965Z,69.00
2018-05-31T09:18:57.047Z,69.30
2018-05-31T09:21:25.940Z,67.80
2018-05-31T09:23:55.051Z,67.60
2018-05-31T09:26:24.392Z,69.00
2018-05-31T09:28:53.550Z,67.40
2018-05-31T09:31:22.423Z,66.10
2018-05-31T09:33:51.341Z,67.20
2018-05-31T09:36:20.413Z,65.70
2018-05-31T09:38:49.304Z,65.10
2018-05-31T09:41:18.291Z,66.60
2018-05-31T09:43:47.288Z,66.60
2018-05-31T09:46:16.158Z,65.50
2018-05-31T09:48:45.031Z,65.80
2018-05-31T09:51:14.776Z,67.70
2018-05-31T09:53:43.664Z,67.60
2018-05-31T09:56:12.576Z,66.90
2018-05-31T09:58:41.476Z,66.70
2018-05-31T10:01:10.376Z,66.50
2018-05-31T10:03:39.256Z,65.10
2018-05-31T10:06:08.330Z,62.50
2018-05-31T10:08:37.358Z,62.80
2018-05-31T10:11:06.573Z,62.70
2018-05-31T10:13:35.442Z,61.50
2018-05-31T10:16:04.348Z,62.40
2018-05-31T10:18:33.231Z,60.40
2018-05-31T10:21:02.804Z,63.80
2018-05-31T10:23:31.774Z,63.60
2018-05-31T10:26:00.720Z,61.80
2018-05-31T10:28:29.882Z,61.90
2018-05-31T10:30:58.809Z,64.30
2018-05-31T10:33:27.875Z,63.20
2018-05-31T10:35:56.944Z,64.00
2018-05-31T10:38:25.830Z,61.80
2018-05-31T10:40:54.683Z,63.80
2018-05-31T10:43:23.571Z,64.50
2018-05-31T10:45:52.449Z,62.90
2018-05-31T10:48:21.353Z,64.40
2018-05-31T10:50:50.283Z,64.20
2018-05-31T10:53:19.158Z,63.40
2018-05-31T10:55:49.009Z,64.60
2018-05-31T10:58:18.043Z,64.60
2018-05-31T11:00:47.012Z,65.70
2018-05-31T11:03:16.068Z,63.30
2018-05-31T11:05:45.076Z,64.80
2018-05-31T11:08:14.840Z,64.20
2018-05-31T11:10:45.359Z,64.70
2018-05-31T11:13:14.471Z,64.60
2018-05-31T11:15:44.149Z,64.80
2018-05-31T11:18:13.243Z,64.80
2018-05-31T11:20:42.156Z,64.30
2018-05-31T11:23:11.205Z,66.30
2018-05-31T11:25:40.116Z,66.20
2018-05-31T11:28:09.251Z,65.00
2018-05-31T11:30:38.905Z,64.30
2018-05-31T11:33:08.024Z,64.30
2018-05-31T11:35:37.013Z,66.60
2018-05-31T11:38:06.176Z,68.10
2018-05-31T11:40:35.065Z,69.20
2018-05-31T11:43:03.957Z,69.50
2018-05-31T11:45:32.888Z,68.60
2018-05-31T11:48:01.816Z,68.10
2018-05-31T11:50:31.452Z,70.80
2018-05-31T11:53:00.347Z,70.70
2018-05-31T11:55:29.275Z,72.40
2018-05-31T11:57:58.255Z,70.70
2018-05-31T12:00:27.352Z,69.40
2018-05-31T12:02:56.249Z,69.60
2018-05-31T12:05:25.177Z,67.40
2018-05-31T12:07:54.869Z,68.70
2018-05-31T12:10:23.796Z,68.70
2018-05-31T12:12:52.667Z,70.50
2018-05-31T12:15:21.556Z,71.60
2018-05-31T12:17:50.461Z,70.10
2018-05-31T12:20:19.489Z,70.70
2018-05-31T12:22:48.435Z,70.40
2018-05-31T12:25:17.446Z,70.50
2018-05-31T12:27:46.336Z,68.60
2018-05-31T12:30:15.222Z,69.80
2018-05-31T12:32:44.443Z,69.40
2018-05-31T12:35:13.562Z,68.60
2018-05-31T12:37:42.580Z,68.80
2018-05-31T12:40:11.592Z,67.40
2018-05-31T12:42:40.493Z,66.00
2018-05-31T12:45:09.380Z,66.10
2018-05-31T12:47:38.300Z,66.10
2018-05-31T12:50:07.179Z,65.90
2018-05-31T12:52:36.068Z,66.40
2018-05-31T12:55:05.088Z,65.50
2018-05-31T12:57:33.963Z,67.20
2018-05-31T13:00:03.089Z,65.50
2018-05-31T13:02:31.960Z,65.50
2018-05-31T13:05:01.028Z,66.10
2018-05-31T13:07:29.925Z,66.60
2018-05-31T13:09:58.849Z,67.50
2018-05-31T13:12:27.712Z,67.20
2018-05-31T13:14:56.577Z,67.80
2018-05-31T13:17:25.476Z,68.00
2018-05-31T13:19:54.383Z,67.70
2018-05-31T13:22:23.279Z,67.40
2018-05-31T13:24:52.241Z,63.60
2018-05-31T13:27:21.919Z,65.90
2018-05-31T13:29:50.857Z,65.80
2018-05-31T13:32:19.776Z,67.20
2018-05-31T13:34:48.683Z,66.80
2018-05-31T13:37:17.658Z,65.80
2018-05-31T13:39:46.595Z,66.10
2018-05-31T13:42:15.468Z,65.40
2018-05-31T13:44:44.363Z,65.40
2018-05-31T13:47:14.084Z,66.70
2018-05-31T13:49:43.851Z,68.30
2018-05-31T13:52:13.249Z,68.20
2018-05-31T13:54:42.285Z,66.10
2018-05-31T13:57:11.922Z,66.00
2018-05-31T13:59:40.823Z,65.90
2018-05-31T14:02:09.739Z,65.30
2018-05-31T14:04:39.371Z,67.10
2018-05-31T14:07:09.280Z,65.30
2018-05-31T14:09:38.160Z,67.70
2018-05-31T14:12:07.036Z,66.90
2018-05-31T14:14:35.970Z,66.10
2018-05-31T14:17:06.232Z,68.20
2018-05-31T14:19:35.345Z,68.20
2018-05-31T14:22:04.610Z,67.70
2018-05-31T14:24:33.613Z,68.90
2018-05-31T14:27:02.742Z,68.30
2018-05-31T14:29:31.652Z,68.00
2018-05-31T14:32:00.540Z,68.20
2018-05-31T14:34:29.600Z,67.90
2018-05-31T14:36:58.647Z,68.70
2018-05-31T14:39:28.333Z,67.20
2018-05-31T14:41:57.528Z,67.20
2018-05-31T14:44:26.671Z,67.10
2018-05-31T14:46:55.640Z,65.90
2018-05-31T14:49:24.829Z,66.50
2018-05-31T14:51:53.773Z,67.00
2018-05-31T14:54:22.842Z,67.70
2018-05-31T14:56:51.738Z,68.70
2018-05-31T14:59:20.816Z,67.90
2018-05-31T15:01:50.540Z,68.60
2018-05-31T15:04:19.408Z,68.40
2018-05-31T15:06:49.111Z,67.60
2018-05-31T15:09:18.914Z,68.00
2018-05-31T15:11:47.973Z,68.50
2018-05-31T15:14:16.884Z,67.50
2018-05-31T15:16:46.123Z,67.80
2018-05-31T15:19:14.979Z,67.90
2018-05-31T15:21:44.084Z,68.20
2018-05-31T15:24:13.736Z,67.80
2018-05-31T15:26:42.847Z,68.50
2018-05-31T15:29:12.099Z,67.50
2018-05-31T15:31:40.996Z,68.30
2018-05-31T15:34:11.099Z,67.70
2018-05-31T15:36:40.141Z,67.70
2018-05-31T15:39:09.033Z,68.10
2018-05-31T15:41:38.044Z,67.70
2018-05-31T15:44:06.914Z,68.70
2018-05-31T15:46:35.805Z,67.70
2018-05-31T15:49:04.764Z,67.70
2018-05-31T15:51:34.440Z,68.50
2018-05-31T15:54:03.451Z,68.50
2018-05-31T15:56:33.088Z,68.30
2018-05-31T15:59:02.086Z,68.00
2018-05-31T16:01:31.168Z,67.60
2018-05-31T16:04:00.875Z,68.30
2018-05-31T16:06:30.528Z,69.10
2018-05-31T16:08:59.632Z,69.10
2018-05-31T16:11:28.769Z,69.40
2018-05-31T16:13:57.846Z,69.20
2018-05-31T16:16:26.736Z,69.80
2018-05-31T16:18:56.421Z,70.00
2018-05-31T16:21:25.329Z,69.90
2018-05-31T16:23:54.333Z,69.50
2018-05-31T16:26:23.242Z,69.20
2018-05-31T16:28:52.902Z,69.90
2018-05-31T16:31:22.093Z,69.90
2018-05-31T16:33:51.024Z,70.20
2018-05-31T16:36:19.931Z,70.30
2018-05-31T16:38:49.798Z,70.90
2018-05-31T16:41:18.748Z,70.90
2018-05-31T16:43:48.396Z,71.40
2018-05-31T16:46:17.584Z,71.40
2018-05-31T16:48:46.793Z,71.80
2018-05-31T16:51:15.895Z,71.30
2018-05-31T16:53:44.926Z,71.80
2018-05-31T16:56:13.853Z,72.50
2018-05-31T16:58:42.744Z,72.90
2018-05-31T17:01:11.640Z,73.10
2018-05-31T17:03:40.765Z,72.20
2018-05-31T17:06:09.673Z,71.70
2018-05-31T17:08:38.602Z,72.00
2018-05-31T17:11:07.550Z,72.00
2018-05-31T17:13:36.499Z,72.50
2018-05-31T17:16:05.540Z,72.80
2018-05-31T17:18:34.459Z,73.10
2018-05-31T17:21:03.579Z,73.10
2018-05-31T17:23:32.503Z,73.20
2018-05-31T17:26:01.420Z,73.10
2018-05-31T17:28:31.326Z,74.20
2018-05-31T17:31:00.733Z,74.10
2018-05-31T17:33:29.757Z,74.40
2018-05-31T17:35:58.909Z,74.40
2018-05-31T17:38:27.827Z,75.20
2018-05-31T17:40:57.801Z,77.10
2018-05-31T17:43:26.724Z,77.00
2018-05-31T17:45:55.605Z,77.60
2018-05-31T17:48:29.168Z,78.60
2018-05-31T17:50:58.040Z,78.60
2018-05-31T17:53:27.036Z,79.60
2018-05-31T17:55:56.759Z,80.00
2018-05-31T17:58:25.880Z,80.20
2018-05-31T18:00:54.826Z,80.40
2018-05-31T18:03:23.732Z,80.70
2018-05-31T18:05:52.624Z,81.30
2018-05-31T18:08:21.598Z,81.70
2018-05-31T18:10:50.915Z,82.30
2018-05-31T18:13:19.915Z,82.50
2018-05-31T18:15:49.335Z,82.70
2018-05-31T18:18:18.304Z,82.60
2018-05-31T18:20:47.195Z,82.70
2018-05-31T18:23:16.269Z,83.10
2018-05-31T18:25:45.179Z,83.60
2018-05-31T18:28:14.129Z,83.20
2018-05-31T18:30:43.389Z,83.70
2018-05-31T18:33:12.992Z,83.80
2018-05-31T18:35:43.206Z,84.10
2018-05-31T18:38:12.112Z,84.80
2018-05-31T18:40:41.158Z,85.50
2018-05-31T18:43:10.842Z,86.80
2018-05-31T18:45:39.956Z,86.70
2018-05-31T18:48:09.675Z,88.60
2018-05-31T18:50:38.594Z,87.80
2018-05-31T18:53:07.655Z,88.20
2018-05-31T18:55:37.564Z,89.20
2018-05-31T18:58:07.529Z,88.10
2018-05-31T19:00:36.516Z,88.10
2018-05-31T19:03:05.435Z,88.40
2018-05-31T19:05:34.419Z,88.20
2018-05-31T19:08:03.582Z,88.70
2018-05-31T19:10:32.467Z,89.00
2018-05-31T19:13:07.030Z,89.10
2018-05-31T19:15:36.601Z,89.40
2018-05-31T19:18:06.603Z,88.70
2018-05-31T19:20:35.793Z,88.60
2018-05-31T19:23:04.785Z,89.00
2018-05-31T19:25:34.860Z,89.90
2018-05-31T19:28:03.805Z,89.90
2018-05-31T19:30:38.276Z,89.90
2018-05-31T19:33:07.427Z,89.90
2018-05-31T19:35:42.014Z,89.90
2018-05-31T19:38:12.487Z,90.10
2018-05-31T19:40:41.373Z,90.00
2018-05-31T19:43:15.881Z,90.10
2018-05-31T19:45:45.106Z,90.10
2018-05-31T19:48:14.321Z,90.20
2018-05-31T19:50:43.328Z,90.30
2018-05-31T19:53:17.880Z,90.50
2018-05-31T19:55:47.601Z,90.50
2018-05-31T19:58:22.929Z,90.80
2018-05-31T20:00:57.579Z,90.80
2018-05-31T20:03:35.002Z,91.20
2018-05-31T20:06:04.205Z,90.80
2018-05-31T20:08:33.218Z,90.70
2018-05-31T20:11:02.206Z,90.80
2018-05-31T20:13:32.187Z,91.00
2018-05-31T20:16:01.349Z,91.00
2018-05-31T20:18:30.798Z,91.40
2018-05-31T20:20:59.743Z,91.60
2018-05-31T20:23:29.516Z,91.60
2018-05-31T20:25:58.465Z,91.60
2018-05-31T20:28:27.555Z,91.60
2018-05-31T20:30:56.634Z,91.60
2018-05-31T20:33:25.491Z,91.70
2018-05-31T20:35:54.553Z,92.00
2018-05-31T20:38:23.442Z,91.90
2018-05-31T20:40:52.366Z,91.90
2018-05-31T20:43:21.277Z,92.10
2018-05-31T20:45:50.705Z,92.40
2018-05-31T20:48:19.768Z,92.60
2018-05-31T20:50:48.713Z,92.80
2018-05-31T20:53:17.893Z,92.80
2018-05-31T20:55:46.776Z,92.80
2018-05-31T20:58:15.705Z,92.80
2018-05-31T21:00:44.732Z,92.80
2018-05-31T21:03:13.728Z,92.90
2018-05-31T21:05:42.671Z,93.00
2018-05-31T21:08:11.581Z,93.00
2018-05-31T21:10:40.621Z,93.10
2018-05-31T21:13:09.852Z,93.40
2018-05-31T21:15:38.772Z,93.50
2018-05-31T21:18:07.676Z,93.60
2018-05-31T21:20:36.592Z,93.40
2018-05-31T21:23:06.453Z,93.90
2018-05-31T21:25:35.389Z,93.80
2018-05-31T21:28:04.305Z,93.60
2018-05-31T21:30:33.223Z,93.90
2018-05-31T21:33:02.308Z,94.10
2018-05-31T21:35:31.364Z,94.00
2018-05-31T21:38:00.261Z,94.00
2018-05-31T21:40:29.206Z,94.30
2018-05-31T21:42:58.112Z,94.10
2018-05-31T21:45:27.084Z,94.30
2018-05-31T21:47:56.160Z,94.20
2018-05-31T21:50:26.073Z,94.20
2018-05-31T21:52:56.281Z,94.30
2018-05-31T21:55:26.172Z,94.50
2018-05-31T21:57:55.863Z,94.60
2018-05-31T22:00:34.419Z,94.60
2018-05-31T22:03:04.108Z,95.20
2018-05-31T22:05:33.843Z,94.70
2018-05-31T22:08:02.701Z,94.70
2018-05-31T22:10:31.992Z,94.90
2018-05-31T22:13:01.089Z,95.10
2018-05-31T22:15:30.638Z,95.20
2018-05-31T22:17:59.555Z,95.20
2018-05-31T22:20:28.480Z,95.10
2018-05-31T22:22:57.559Z,95.50
2018-05-31T22:25:26.448Z,95.40
2018-05-31T22:27:55.369Z,95.20
2018-05-31T22:30:25.105Z,95.00
2018-05-31T22:32:54.105Z,95.00
2018-05-31T22:35:23.607Z,95.30
2018-05-31T22:37:52.524Z,95.70
2018-05-31T22:40:21.515Z,95.70
2018-05-31T22:42:50.786Z,95.90
2018-05-31T22:45:20.090Z,95.80
2018-05-31T22:47:49.019Z,95.90
2018-05-31T22:50:17.907Z,95.90
2018-05-31T22:52:46.853Z,95.90
2018-05-31T22:55:15.746Z,95.80
2018-05-31T22:57:44.816Z,95.80
2018-05-31T23:00:13.822Z,95.80
2018-05-31T23:02:43.763Z,96.40
2018-05-31T23:05:12.598Z,96.40
2018-05-31T23:07:41.712Z,96.30
2018-05-31T23:10:10.620Z,96.30
2018-05-31T23:12:39.494Z,96.30
2018-05-31T23:15:09.322Z,96.90
2018-05-31T23:17:38.320Z,96.90
2018-05-31T23:20:07.220Z,97.10
2018-05-31T23:22:36.334Z,97.20
2018-05-31T23:25:05.455Z,97.50
2018-05-31T23:27:34.372Z,97.40
2018-05-31T23:30:03.527Z,97.20
2018-05-31T23:32:32.397Z,97.10
2018-05-31T23:35:01.277Z,97.10
2018-05-31T23:37:30.339Z,97.10
2018-05-31T23:39:59.220Z,97.00
2018-05-31T23:42:28.561Z,96.90
2018-05-31T23:44:57.917Z,97.10
2018-05-31T23:47:26.804Z,96.90
2018-05-31T23:49:55.762Z,97.10
2018-05-31T23:52:24.652Z,97.00
2018-05-31T23:54:53.555Z,96.90
2018-05-31T23:57:22.632Z,97.00
2018-05-31T23:59:51.749Z,97.20
